Time;durP1;ratioP1;P1;durP2;ratioP2;P2;SDS_P1;SDS_P2;PMS_P1;PMS_P2;Temp;Humidity;BMP_temperature;BMP_pressure;BME280_temperature;BME280_humidity;BME280_pressure;Samples;Min_cycle;Max_cycle;Signal;HPM_P1;HPM_P2
2022/12/22 03:26:47;;;;;;;486.63;454.00;;;10.30;24.50;;;;;;5067502;28;20483;-73
2022/12/22 03:29:13;;;;;;;467.77;435.93;;;10.20;24.80;;;;;;5065737;28;20454;-74
2022/12/22 03:31:39;;;;;;;552.30;515.83;;;10.10;24.80;;;;;;5066222;28;20525;-73
2022/12/22 03:34:07;;;;;;;417.00;388.63;;;10.10;25.00;;;;;;5067050;28;20175;-73
2022/12/22 03:36:33;;;;;;;569.27;529.63;;;10.10;24.50;;;;;;5067284;28;20170;-72
2022/12/22 03:38:59;;;;;;;372.40;345.20;;;10.10;24.20;;;;;;5067171;28;20413;-74
2022/12/22 03:46:52;;;;;;;263.53;243.93;;;10.00;23.50;;;;;;5064659;28;20529;-73
2022/12/22 03:49:18;;;;;;;360.70;335.03;;;10.20;22.70;;;;;;5065678;28;20918;-73
2022/12/22 03:51:51;;;;;;;739.57;680.07;;;10.30;22.70;;;;;;5065693;28;20174;-73
2022/12/22 03:54:19;;;;;;;339.63;317.83;;;10.50;20.50;;;;;;5066737;28;20441;-73
2022/12/22 03:56:46;;;;;;;664.57;620.40;;;10.70;19.90;;;;;;5062096;28;20837;-72
2022/12/22 03:59:12;;;;;;;344.77;322.63;;;10.80;19.90;;;;;;5064793;28;20433;-72
2022/12/22 04:01:47;;;;;;;427.90;398.30;;;10.80;19.40;;;;;;5063901;28;20411;-73
2022/12/22 04:04:14;;;;;;;567.00;528.67;;;10.90;19.00;;;;;;5067633;28;20406;-73
2022/12/22 04:06:40;;;;;;;481.13;449.83;;;10.90;19.40;;;;;;5064357;28;20462;-72
2022/12/22 04:09:06;;;;;;;556.63;520.03;;;11.00;19.30;;;;;;5067175;28;20415;-73
2022/12/22 04:14:15;;;;;;;214.03;198.90;;;10.90;19.80;;;;;;5065303;28;20414;-73
2022/12/22 04:16:41;;;;;;;440.20;408.63;;;10.90;20.00;;;;;;5065531;28;20434;-73
2022/12/22 04:19:07;;;;;;;611.77;570.60;;;10.90;20.10;;;;;;5067354;28;20211;-73
2022/12/22 04:21:33;;;;;;;547.13;512.83;;;10.90;19.50;;;;;;5066985;28;20208;-71
2022/12/22 04:23:59;;;;;;;396.67;369.33;;;10.90;19.80;;;;;;5063850;28;20410;-73
2022/12/22 04:26:25;;;;;;;433.37;404.87;;;10.90;19.70;;;;;;5069034;28;20482;-72
2022/12/22 04:28:51;;;;;;;500.47;466.97;;;10.80;19.80;;;;;;5067145;28;20664;-73
2022/12/22 04:31:17;;;;;;;433.83;404.47;;;10.70;20.00;;;;;;5066177;28;20419;-72
2022/12/22 04:33:42;;;;;;;442.23;411.13;;;10.70;20.10;;;;;;5064344;28;20416;-72
2022/12/22 04:36:09;;;;;;;265.03;245.43;;;10.60;20.70;;;;;;5064882;28;20170;-73
2022/12/22 04:38:35;;;;;;;410.13;383.43;;;10.60;20.60;;;;;;5062688;28;20630;-73
2022/12/22 04:41:01;;;;;;;395.60;369.77;;;10.50;20.90;;;;;;5065915;28;20794;-73
2022/12/22 04:43:27;;;;;;;388.23;361.60;;;10.40;21.50;;;;;;5065060;28;20414;-73
2022/12/22 04:45:54;;;;;;;427.03;396.43;;;10.40;22.20;;;;;;5068637;28;20452;-72
2022/12/22 04:48:20;;;;;;;530.90;494.30;;;10.40;22.90;;;;;;5065339;28;20210;-73
2022/12/22 04:50:50;;;;;;;447.87;419.53;;;10.40;22.90;;;;;;5062232;28;21083;-74
2022/12/22 04:53:16;;;;;;;448.00;415.30;;;10.30;23.80;;;;;;5063820;28;20810;-72
2022/12/22 04:55:50;;;;;;;638.23;592.73;;;10.20;24.60;;;;;;5066948;28;20504;-73
2022/12/22 04:58:15;;;;;;;488.57;455.57;;;10.10;24.80;;;;;;5065154;28;20429;-72
2022/12/22 05:00:41;;;;;;;638.37;593.17;;;10.10;25.40;;;;;;5060681;28;20463;-73
2022/12/22 05:03:07;;;;;;;496.40;460.17;;;10.00;26.20;;;;;;5061313;28;20210;-73
2022/12/22 05:05:34;;;;;;;459.83;429.80;;;10.00;26.80;;;;;;5062421;28;20441;-73
2022/12/22 05:07:59;;;;;;;740.37;676.03;;;10.00;26.70;;;;;;5065156;28;20288;-72
2022/12/22 05:10:25;;;;;;;500.33;468.17;;;10.10;26.80;;;;;;5065989;28;20437;-72
2022/12/22 05:12:53;;;;;;;397.63;368.20;;;10.20;26.90;;;;;;5059822;28;20246;-72
2022/12/22 05:15:23;;;;;;;520.20;483.17;;;10.20;26.90;;;;;;5060907;28;20178;-73
2022/12/22 05:17:48;;;;;;;706.17;648.87;;;10.10;27.60;;;;;;5059122;28;20437;-73
2022/12/22 05:20:14;;;;;;;431.30;403.63;;;10.10;28.10;;;;;;5061950;28;20449;-73
2022/12/22 05:22:40;;;;;;;498.07;460.43;;;10.10;28.60;;;;;;5061852;28;20708;-73
2022/12/22 05:25:06;;;;;;;456.57;424.43;;;10.10;28.70;;;;;;5063013;28;20190;-72
2022/12/22 05:27:31;;;;;;;399.67;371.33;;;10.20;27.40;;;;;;5066576;28;20206;-73
2022/12/22 05:29:57;;;;;;;718.97;663.00;;;10.30;27.00;;;;;;5066143;28;20655;-72
2022/12/22 05:32:22;;;;;;;470.97;439.40;;;10.30;26.30;;;;;;5064410;28;20199;-73
2022/12/22 05:34:48;;;;;;;641.57;594.00;;;10.40;25.80;;;;;;5065040;28;20190;-72
2022/12/22 05:37:14;;;;;;;333.63;312.17;;;10.40;24.70;;;;;;5062855;28;20299;-72
2022/12/22 05:39:39;;;;;;;439.20;407.43;;;10.50;24.40;;;;;;5052615;28;20217;-72
2022/12/22 05:42:05;;;;;;;426.60;397.57;;;10.60;23.00;;;;;;5052362;28;20174;-72
2022/12/22 05:44:30;;;;;;;588.40;544.40;;;10.70;22.50;;;;;;5052497;28;20201;-72
2022/12/22 05:46:56;;;;;;;326.37;303.47;;;10.70;22.10;;;;;;5052176;28;20240;-72
2022/12/22 05:49:21;;;;;;;513.97;479.50;;;10.70;22.00;;;;;;5052615;28;20267;-72
2022/12/22 05:51:47;;;;;;;327.23;304.57;;;10.80;20.80;;;;;;5052654;28;20264;-72
2022/12/22 05:54:13;;;;;;;563.60;514.40;;;10.80;20.90;;;;;;5052536;28;20224;-72
2022/12/22 05:56:38;;;;;;;408.03;380.33;;;10.90;20.80;;;;;;5052509;28;20183;-72
2022/12/22 05:59:04;;;;;;;544.23;504.97;;;10.90;19.90;;;;;;5053107;28;20182;-72
2022/12/22 06:01:29;;;;;;;650.77;598.90;;;11.00;19.10;;;;;;5053082;28;20272;-71
2022/12/22 06:03:55;;;;;;;323.93;302.30;;;11.00;19.70;;;;;;5053451;28;20182;-72
2022/12/22 06:06:21;;;;;;;729.47;661.13;;;10.90;19.00;;;;;;5053696;28;20574;-72
2022/12/22 06:08:46;;;;;;;623.07;574.27;;;10.80;19.80;;;;;;5053222;28;20691;-72
2022/12/22 06:11:16;;;;;;;379.90;353.13;;;10.60;20.40;;;;;;5054220;28;20176;-72
2022/12/22 06:13:43;;;;;;;829.40;756.20;;;10.60;20.90;;;;;;5053725;28;20174;-72
2022/12/22 06:16:08;;;;;;;542.53;505.73;;;10.50;20.80;;;;;;5053426;28;20424;-72
2022/12/22 06:18:34;;;;;;;464.40;431.13;;;10.50;20.70;;;;;;5053211;28;20948;-72
2022/12/22 06:20:59;;;;;;;789.30;718.30;;;10.50;20.80;;;;;;5053282;28;20176;-72
2022/12/22 06:23:25;;;;;;;302.80;280.97;;;10.50;20.40;;;;;;5053367;28;20181;-72
2022/12/22 06:25:59;;;;;;;385.50;360.67;;;10.60;20.20;;;;;;5053098;28;20182;-72
2022/12/22 06:28:25;;;;;;;374.23;347.60;;;10.50;20.30;;;;;;5052774;28;20202;-72
2022/12/22 06:30:51;;;;;;;335.90;312.63;;;10.40;20.50;;;;;;5052379;28;20417;-71
2022/12/22 06:33:16;;;;;;;416.50;387.83;;;10.30;20.00;;;;;;5052144;28;20424;-72
2022/12/22 06:35:46;;;;;;;378.47;352.20;;;10.30;19.70;;;;;;5053694;28;20401;-71
2022/12/22 06:38:12;;;;;;;348.77;325.37;;;10.40;19.00;;;;;;5052320;28;20212;-72
2022/12/22 06:40:37;;;;;;;541.27;501.77;;;10.40;18.60;;;;;;5050897;28;20423;-71
2022/12/22 06:43:09;;;;;;;630.13;569.97;;;10.30;18.70;;;;;;5051791;28;20914;-72
2022/12/22 06:45:40;;;;;;;485.77;453.30;;;10.40;18.30;;;;;;5052407;28;20570;-70
2022/12/22 06:48:07;;;;;;;471.57;438.43;;;10.50;18.00;;;;;;5052219;28;20543;-70
2022/12/22 06:50:33;;;;;;;185.07;170.93;;;10.60;17.20;;;;;;5052212;28;20429;-70
2022/12/22 06:52:59;;;;;;;479.50;449.13;;;10.60;17.30;;;;;;5051702;28;20419;-70
2022/12/22 06:55:24;;;;;;;501.67;465.27;;;10.60;17.00;;;;;;5051884;28;20463;-70
2022/12/22 06:57:50;;;;;;;416.70;386.83;;;10.70;16.90;;;;;;5051796;28;20697;-71
2022/12/22 07:00:16;;;;;;;586.20;543.70;;;10.70;15.80;;;;;;5051714;28;20175;-71
2022/12/22 07:02:41;;;;;;;440.90;409.03;;;10.80;15.30;;;;;;5051236;28;20203;-71
2022/12/22 07:05:08;;;;;;;645.03;597.30;;;10.90;14.90;;;;;;5051684;28;20445;-71
2022/12/22 07:07:34;;;;;;;572.97;529.33;;;10.90;14.70;;;;;;5051674;28;20252;-71
2022/12/22 07:10:03;;;;;;;353.10;329.60;;;10.90;14.70;;;;;;5051699;28;20820;-70
2022/12/22 07:12:28;;;;;;;365.40;340.53;;;11.00;14.80;;;;;;5051737;28;20410;-71
2022/12/22 07:14:55;;;;;;;511.23;475.37;;;10.90;16.40;;;;;;5051946;28;20933;-71
2022/12/22 07:17:20;;;;;;;541.10;503.33;;;10.70;16.40;;;;;;5051736;28;20479;-70
2022/12/22 07:19:46;;;;;;;343.80;320.30;;;;;;;;;;5053185;28;20409;-71
2022/12/22 07:22:12;;;;;;;444.00;414.87;;;10.50;15.60;;;;;;5056125;28;20175;-71
2022/12/22 07:24:37;;;;;;;472.17;439.20;;;10.50;16.60;;;;;;5056617;28;20412;-71
2022/12/22 07:27:03;;;;;;;227.03;212.30;;;10.50;16.70;;;;;;5056549;28;20253;-70
2022/12/22 07:29:29;;;;;;;607.43;554.47;;;10.50;16.60;;;;;;5056265;28;20656;-70
2022/12/22 07:31:54;;;;;;;447.60;413.17;;;10.60;16.10;;;;;;5056601;28;20175;-74
2022/12/22 07:34:20;;;;;;;376.07;352.10;;;10.70;15.90;;;;;;5057531;28;20186;-71
2022/12/22 07:36:45;;;;;;;341.97;318.83;;;10.80;16.20;;;;;;5057413;28;20320;-70
2022/12/22 07:39:12;;;;;;;235.40;219.87;;;10.80;15.40;;;;;;5057500;28;20180;-70
2022/12/22 07:44:22;;;;;;;355.03;332.17;;;10.80;15.40;;;;;;5056671;28;20920;-71
2022/12/22 07:46:48;;;;;;;332.60;309.73;;;10.80;15.40;;;;;;5056568;28;20473;-70
2022/12/22 07:51:58;;;;;;;483.37;450.47;;;10.60;15.50;;;;;;5055874;28;20611;-70
2022/12/22 07:54:25;;;;;;;457.73;426.43;;;10.60;15.40;;;;;;5047971;28;20489;-71
2022/12/22 07:56:50;;;;;;;317.53;296.57;;;10.50;15.70;;;;;;5031261;28;20437;-72
2022/12/22 07:59:16;;;;;;;511.77;477.30;;;10.50;16.50;;;;;;5031862;28;20953;-71
2022/12/22 08:01:42;;;;;;;599.33;549.73;;;10.60;17.40;;;;;;5031464;28;20663;-71
2022/12/22 08:04:09;;;;;;;664.40;615.13;;;10.50;18.80;;;;;;5030928;28;20215;-73
2022/12/22 08:06:35;;;;;;;380.80;355.87;;;10.50;21.10;;;;;;5032031;28;20740;-71
2022/12/22 08:09:01;;;;;;;351.20;326.70;;;10.30;22.80;;;;;;5031565;28;20433;-72
2022/12/22 08:11:27;;;;;;;485.40;453.03;;;10.10;24.90;;;;;;5032302;28;20495;-69
2022/12/22 08:13:53;;;;;;;449.93;419.30;;;10.00;26.30;;;;;;5032654;28;20446;-71
2022/12/22 08:16:20;;;;;;;355.93;330.03;;;9.80;28.10;;;;;;5032280;28;20426;-70
2022/12/22 08:18:46;;;;;;;477.73;444.93;;;9.70;29.70;;;;;;5032236;28;20265;-71
2022/12/22 08:21:11;;;;;;;468.27;436.63;;;9.60;30.90;;;;;;5033709;28;21215;-71
2022/12/22 08:23:37;;;;;;;646.83;598.83;;;9.60;31.60;;;;;;5043622;28;20214;-70
2022/12/22 08:26:11;;;;;;;484.63;449.50;;;9.50;32.30;;;;;;5044102;28;20731;-69
2022/12/22 08:28:47;;;;;;;665.17;609.10;;;9.40;34.00;;;;;;5053075;28;20216;-72
2022/12/22 08:31:13;;;;;;;330.97;305.50;;;9.30;34.70;;;;;;5031367;28;20461;-74
2022/12/22 08:33:39;;;;;;;518.40;481.37;;;9.30;34.20;;;;;;5050410;28;20453;-73
2022/12/22 08:36:06;;;;;;;409.93;378.97;;;9.30;32.00;;;;;;5050410;28;20186;-71
2022/12/22 08:38:31;;;;;;;359.37;335.13;;;9.30;32.10;;;;;;5039296;28;20625;-72
2022/12/22 08:40:57;;;;;;;345.80;319.13;;;9.30;31.80;;;;;;5030647;28;20480;-71
2022/12/22 08:43:23;;;;;;;373.47;343.83;;;9.30;32.70;;;;;;5030100;28;20187;-72
2022/12/22 08:45:49;;;;;;;310.40;288.83;;;9.40;31.90;;;;;;5053626;28;20431;-73
2022/12/22 08:48:15;;;;;;;391.73;364.23;;;9.40;31.40;;;;;;5069736;28;20464;-70
2022/12/22 08:50:40;;;;;;;415.53;386.40;;;9.40;30.00;;;;;;5058769;28;20240;-69
2022/12/22 08:53:08;;;;;;;332.93;309.73;;;9.50;29.90;;;;;;5042568;28;20195;-74
2022/12/22 08:55:33;;;;;;;362.10;336.33;;;9.50;28.80;;;;;;5030522;28;20249;-72
2022/12/22 08:57:59;;;;;;;447.97;416.13;;;9.60;28.80;;;;;;5050387;28;20441;-72
2022/12/22 09:00:25;;;;;;;663.93;616.70;;;9.70;28.60;;;;;;5032759;28;20183;-71
2022/12/22 09:02:51;;;;;;;652.80;594.80;;;9.70;28.60;;;;;;5049728;28;20679;-68
2022/12/22 09:05:18;;;;;;;442.37;409.50;;;9.70;28.30;;;;;;5050314;28;20438;-69
2022/12/22 09:07:46;;;;;;;714.63;659.90;;;9.80;28.50;;;;;;5050418;28;20214;-72
2022/12/22 09:10:11;;;;;;;508.67;473.43;;;9.90;28.00;;;;;;5050603;28;20516;-68
2022/12/22 09:12:37;;;;;;;560.27;519.87;;;10.20;27.00;;;;;;5048655;28;20543;-71
2022/12/22 09:15:03;;;;;;;668.07;611.97;;;10.20;26.10;;;;;;5049130;28;20417;-71
2022/12/22 09:17:28;;;;;;;375.67;348.37;;;10.20;25.20;;;;;;5048462;28;20637;-71
2022/12/22 09:19:54;;;;;;;459.10;426.90;;;10.40;26.10;;;;;;5048069;28;20201;-72
2022/12/22 09:22:19;;;;;;;683.60;631.00;;;10.50;24.80;;;;;;5048654;28;20278;-71
2022/12/22 09:24:45;;;;;;;364.53;340.13;;;10.50;22.90;;;;;;5048578;28;20182;-69
2022/12/22 09:27:11;;;;;;;241.50;222.73;;;10.60;23.70;;;;;;5047877;28;20222;-71
2022/12/22 09:29:36;;;;;;;465.97;431.73;;;10.50;24.10;;;;;;5049805;28;20186;-72
2022/12/22 09:32:03;;;;;;;423.40;393.43;;;10.50;24.30;;;;;;5050171;28;20179;-69
2022/12/22 09:34:29;;;;;;;498.03;462.33;;;10.40;24.50;;;;;;5052721;28;20217;-72
2022/12/22 09:36:54;;;;;;;514.20;475.73;;;10.30;24.40;;;;;;5051751;28;20986;-72
2022/12/22 09:39:20;;;;;;;605.53;560.57;;;10.30;25.00;;;;;;5053549;28;20416;-70
2022/12/22 09:41:53;;;;;;;365.13;340.80;;;10.20;25.50;;;;;;5052817;28;20695;-71
2022/12/22 09:44:38;;;;;;;311.97;288.47;;;10.20;26.20;;;;;;5052219;28;20194;-71
2022/12/22 09:47:18;;;;;;;419.40;391.20;;;10.20;26.90;;;;;;5053256;28;20448;-71
2022/12/22 09:49:43;;;;;;;480.40;446.17;;;10.30;26.70;;;;;;5053135;28;20393;-71
2022/12/22 09:52:35;;;;;;;458.47;429.43;;;10.20;26.30;;;;;;5052766;28;20752;-71
2022/12/22 09:55:01;;;;;;;573.77;533.47;;;10.20;25.90;;;;;;5053273;28;20194;-70
2022/12/22 09:57:31;;;;;;;573.80;528.60;;;10.20;26.50;;;;;;5052910;28;20463;-71
2022/12/22 10:00:14;;;;;;;688.40;638.10;;;10.20;26.30;;;;;;5053242;28;20427;-71
2022/12/22 10:02:56;;;;;;;256.80;237.13;;;10.20;26.20;;;;;;5053113;28;20448;-71
2022/12/22 10:05:41;;;;;;;514.27;477.37;;;10.20;26.60;;;;;;5052853;28;20902;-71
2022/12/22 10:08:12;;;;;;;512.17;477.23;;;10.30;26.20;;;;;;5052979;28;21080;-71
2022/12/22 10:10:38;;;;;;;503.47;466.97;;;10.40;26.70;;;;;;5052635;28;20414;-71
2022/12/22 10:13:05;;;;;;;389.73;361.27;;;10.40;25.70;;;;;;5052751;28;20409;-71
2022/12/22 10:15:39;;;;;;;576.07;532.57;;;10.60;25.10;;;;;;5054015;28;20179;-71
2022/12/22 10:18:14;;;;;;;597.27;555.37;;;10.60;25.00;;;;;;5052662;28;20444;-70
2022/12/22 10:20:43;;;;;;;542.40;503.13;;;10.70;24.80;;;;;;5052542;28;20450;-71
2022/12/22 10:23:26;;;;;;;595.57;552.07;;;10.70;24.50;;;;;;5052937;28;20401;-71
2022/12/22 10:25:55;;;;;;;358.70;334.87;;;10.80;24.30;;;;;;5052706;28;20390;-72
2022/12/22 10:28:32;;;;;;;354.00;326.83;;;10.80;24.10;;;;;;5052910;28;20458;-71
2022/12/22 10:31:23;;;;;;;355.27;331.63;;;10.70;24.00;;;;;;5052762;28;20585;-71
2022/12/22 10:33:55;;;;;;;385.27;359.07;;;10.80;24.10;;;;;;5052144;28;20391;-71
2022/12/22 10:36:27;;;;;;;528.17;491.40;;;10.80;23.90;;;;;;5052468;28;20432;-72
2022/12/22 10:39:23;;;;;;;677.80;627.97;;;10.70;23.40;;;;;;5052701;28;20502;-71
2022/12/22 10:41:51;;;;;;;999.80;888.53;;;10.70;23.60;;;;;;5039902;28;20425;-73
2022/12/22 10:44:16;;;;;;;397.67;369.23;;;10.70;23.10;;;;;;5039012;28;20441;-72
2022/12/22 10:46:57;;;;;;;548.17;507.37;;;10.70;24.70;;;;;;5044932;28;20515;-71
2022/12/22 10:49:27;;;;;;;573.67;532.23;;;10.70;24.40;;;;;;5049498;28;20178;-72
2022/12/22 10:52:14;;;;;;;668.30;615.93;;;10.70;24.70;;;;;;5052458;28;21142;-72
2022/12/22 10:54:42;;;;;;;373.40;347.37;;;10.70;23.60;;;;;;5053201;28;20405;-71
2022/12/22 10:57:14;;;;;;;387.30;360.77;;;10.70;24.80;;;;;;5056189;28;20434;-72
2022/12/22 11:00:00;;;;;;;550.60;511.63;;;10.70;24.20;;;;;;5056315;28;20426;-74
2022/12/22 11:02:30;;;;;;;584.70;544.47;;;10.80;23.80;;;;;;5055733;28;20473;-70
2022/12/22 11:05:10;;;;;;;409.93;382.30;;;10.80;24.00;;;;;;5056150;28;20417;-71
2022/12/22 11:07:39;;;;;;;261.30;241.70;;;10.80;24.00;;;;;;5056082;28;20537;-71
2022/12/22 11:10:13;;;;;;;371.30;345.50;;;10.80;23.70;;;;;;5056117;28;20409;-70
2022/12/22 11:13:09;;;;;;;465.03;432.07;;;10.90;23.20;;;;;;5055749;28;20656;-70
2022/12/22 11:15:52;;;;;;;372.40;345.67;;;11.00;22.70;;;;;;5056061;28;20405;-70
2022/12/22 11:18:23;;;;;;;497.93;460.93;;;11.30;22.50;;;;;;5056249;28;20511;-70
2022/12/22 11:21:24;;;;;;;445.43;413.10;;;11.30;21.30;;;;;;5056690;28;20405;-71
2022/12/22 11:23:53;;;;;;;492.73;459.63;;;11.40;22.10;;;;;;5055887;28;20759;-71
2022/12/22 11:26:26;;;;;;;541.60;502.27;;;11.60;21.70;;;;;;5056552;28;20465;-71
2022/12/22 11:29:27;;;;;;;454.73;421.33;;;11.80;19.60;;;;;;5056053;28;20543;-73
2022/12/22 11:32:37;;;;;;;308.27;285.80;;;11.80;19.70;;;;;;5055777;28;20505;-69
2022/12/22 11:35:07;;;;;;;500.67;465.60;;;11.80;19.60;;;;;;5055564;28;20415;-69
2022/12/22 11:37:57;;;;;;;494.57;459.53;;;11.70;19.50;;;;;;5058520;28;20455;-71
2022/12/22 11:40:36;;;;;;;230.80;212.93;;;11.70;19.50;;;;;;5060583;28;20424;-71
2022/12/22 11:43:26;;;;;;;377.30;352.27;;;11.70;19.50;;;;;;5060409;28;20443;-74
2022/12/22 11:46:31;;;;;;;531.53;495.37;;;11.50;19.40;;;;;;5061634;28;20469;-72
2022/12/22 11:49:16;;;;;;;476.37;443.27;;;11.50;19.50;;;;;;5057738;28;20481;-71
2022/12/22 11:51:59;;;;;;;614.93;571.20;;;11.60;19.40;;;;;;5060487;28;20416;-71
2022/12/22 11:54:44;;;;;;;481.53;449.90;;;11.50;19.50;;;;;;5058479;28;20405;-73
2022/12/22 11:57:20;;;;;;;436.03;405.50;;;11.50;19.40;;;;;;5057612;28;20444;-71
2022/12/22 12:00:07;;;;;;;557.53;519.27;;;11.60;19.80;;;;;;5058416;28;20900;-71
2022/12/22 12:02:55;;;;;;;599.23;553.57;;;11.60;19.40;;;;;;5056195;28;20401;-70
2022/12/22 12:05:48;;;;;;;199.73;184.47;;;11.60;19.40;;;;;;5055944;28;20422;-70
2022/12/22 12:08:25;;;;;;;519.77;483.47;;;11.70;19.50;;;;;;5055985;28;20456;-71
2022/12/22 12:10:56;;;;;;;380.37;355.57;;;11.60;20.20;;;;;;5055069;28;20443;-71
2022/12/22 12:14:00;;;;;;;282.03;261.27;;;11.60;20.60;;;;;;5054754;28;20410;-70
2022/12/22 12:16:54;;;;;;;410.87;382.47;;;11.80;19.60;;;;;;5054952;28;20770;-71
2022/12/22 12:19:31;;;;;;;401.70;374.53;;;11.80;19.60;;;;;;5054911;28;20450;-71
2022/12/22 12:22:07;;;;;;;339.50;316.67;;;11.90;19.70;;;;;;5054583;28;20514;-70
2022/12/22 12:24:41;;;;;;;322.77;301.50;;;11.90;19.30;;;;;;5054928;28;20423;-70
2022/12/22 12:27:15;;;;;;;376.47;351.40;;;11.90;19.30;;;;;;5054906;28;20519;-70
2022/12/22 12:30:04;;;;;;;333.00;309.70;;;11.90;19.70;;;;;;5054735;28;20412;-71
2022/12/22 12:32:57;;;;;;;495.43;461.60;;;11.60;19.40;;;;;;5054479;28;20420;-71
2022/12/22 12:35:45;;;;;;;371.63;346.87;;;11.60;19.40;;;;;;5054692;28;20453;-71
2022/12/22 12:38:17;;;;;;;380.27;354.57;;;11.60;19.40;;;;;;5054664;28;20471;-70
2022/12/22 12:40:54;;;;;;;590.50;542.57;;;11.50;19.70;;;;;;5054275;28;20416;-70
2022/12/22 12:43:22;;;;;;;459.20;428.57;;;11.50;19.40;;;;;;5052820;28;20431;-70
2022/12/22 12:45:48;;;;;;;419.00;390.43;;;11.60;20.10;;;;;;5054190;28;20498;-71
2022/12/22 12:48:20;;;;;;;528.87;494.73;;;11.80;19.60;;;;;;5055751;28;20471;-70
2022/12/22 12:50:47;;;;;;;364.17;339.57;;;11.80;18.60;;;;;;5056492;28;20418;-71
2022/12/22 12:53:13;;;;;;;338.47;316.30;;;11.80;18.90;;;;;;5055626;28;20519;-71
2022/12/22 12:55:48;;;;;;;371.87;346.03;;;11.80;18.80;;;;;;5057098;28;20440;-71
2022/12/22 12:58:33;;;;;;;647.47;600.07;;;11.60;19.40;;;;;;5056769;28;20449;-70
2022/12/22 13:00:59;;;;;;;417.53;388.73;;;11.50;19.40;;;;;;5056972;28;20545;-68
2022/12/22 13:03:27;;;;;;;530.97;493.40;;;11.50;19.40;;;;;;5053758;28;20913;-69
2022/12/22 13:05:58;;;;;;;358.80;335.30;;;11.40;19.10;;;;;;5053766;28;20181;-69
2022/12/22 13:08:29;;;;;;;445.40;416.13;;;11.50;19.40;;;;;;5052298;28;21063;-76
2022/12/22 13:10:54;;;;;;;425.67;397.90;;;11.50;18.70;;;;;;5054140;28;20403;-72
2022/12/22 13:13:25;;;;;;;528.77;493.13;;;11.60;19.00;;;;;;5053516;28;20754;-72
2022/12/22 13:16:03;;;;;;;473.33;440.20;;;11.80;18.50;;;;;;5053786;28;20689;-70
2022/12/22 13:18:41;;;;;;;440.60;411.70;;;11.80;18.30;;;;;;5053647;28;20435;-72
2022/12/22 13:21:16;;;;;;;331.57;309.53;;;11.80;18.20;;;;;;5053685;28;20420;-73
2022/12/22 13:23:56;;;;;;;484.10;452.13;;;11.80;17.10;;;;;;5053329;28;20412;-72
2022/12/22 13:26:25;;;;;;;474.63;441.77;;;11.90;17.20;;;;;;5053431;28;20512;-72
2022/12/22 13:28:59;;;;;;;1209.77;962.10;;;11.90;16.40;;;;;;5053391;28;20827;-72
2022/12/22 13:31:27;;;;;;;320.93;298.27;;;11.80;16.60;;;;;;5053514;28;20423;-72
2022/12/22 13:34:21;;;;;;;497.77;464.27;;;11.90;16.80;;;;;;5053169;28;20957;-72
2022/12/22 13:36:48;;;;;;;524.57;485.20;;;11.90;17.00;;;;;;5051667;28;20448;-71
2022/12/22 13:39:14;;;;;;;473.03;441.87;;;12.00;16.40;;;;;;5052264;28;20418;-71
2022/12/22 13:41:46;;;;;;;450.83;421.93;;;12.10;16.40;;;;;;5053088;28;20415;-71
2022/12/22 13:44:20;;;;;;;389.60;363.83;;;12.10;17.00;;;;;;5053487;28;20952;-71
2022/12/22 13:46:46;;;;;;;418.77;389.80;;;12.10;16.50;;;;;;5053321;28;20425;-71
2022/12/22 13:49:16;;;;;;;551.80;514.03;;;12.10;16.40;;;;;;5052885;28;20522;-71
2022/12/22 13:51:41;;;;;;;403.17;376.30;;;12.10;16.50;;;;;;5052695;28;20201;-72
2022/12/22 13:54:29;;;;;;;381.13;356.43;;;12.00;16.90;;;;;;5053247;28;20417;-71
2022/12/22 13:56:56;;;;;;;372.77;348.90;;;12.00;16.60;;;;;;5052855;28;20194;-73
2022/12/22 13:59:40;;;;;;;495.43;462.37;;;12.00;17.00;;;;;;5052660;28;20416;-73
2022/12/22 14:02:08;;;;;;;238.57;221.73;;;11.90;17.50;;;;;;5052757;28;20408;-73
2022/12/22 14:04:36;;;;;;;481.70;449.23;;;12.00;17.70;;;;;;5052883;28;20420;-71
2022/12/22 14:07:18;;;;;;;287.33;269.37;;;11.90;17.60;;;;;;5052851;28;20475;-72
2022/12/22 14:09:47;;;;;;;427.03;396.50;;;11.90;17.80;;;;;;5052652;28;20773;-70
2022/12/22 14:12:21;;;;;;;890.50;800.03;;;11.70;17.70;;;;;;5052677;28;20423;-72
2022/12/22 14:14:50;;;;;;;394.37;368.30;;;11.40;17.90;;;;;;5052874;28;20415;-71
2022/12/22 14:17:32;;;;;;;578.33;541.60;;;11.20;19.20;;;;;;5051328;28;20443;-72
2022/12/22 14:20:00;;;;;;;204.47;190.23;;;11.10;19.10;;;;;;5052751;28;20402;-73
2022/12/22 14:22:35;;;;;;;335.00;313.37;;;10.90;19.60;;;;;;5052476;28;20796;-69
2022/12/22 14:25:17;;;;;;;336.87;314.40;;;10.80;19.80;;;;;;5052435;28;20415;-72
2022/12/22 14:27:45;;;;;;;394.57;368.53;;;10.70;19.90;;;;;;5050801;28;20517;-73
2022/12/22 14:30:20;;;;;;;354.33;332.03;;;10.70;20.70;;;;;;5052974;28;20407;-73
2022/12/22 14:32:50;;;;;;;491.53;457.70;;;10.80;19.60;;;;;;5054151;28;20407;-72
2022/12/22 14:35:19;;;;;;;519.33;484.77;;;10.80;19.10;;;;;;5054214;28;20414;-71
2022/12/22 14:38:37;;;;;;;499.37;465.33;;;10.70;18.90;;;;;;5053664;28;20494;-71
2022/12/22 14:41:39;;;;;;;960.53;857.97;;;10.60;19.30;;;;;;5040875;28;20523;-71
2022/12/22 14:43:57;;;;;;;499.93;462.57;;;10.60;18.80;;;;;;5053175;28;20426;-71
2022/12/22 14:46:23;;;;;;;403.67;376.07;;;10.50;18.70;;;;;;5053694;28;20931;-71
2022/12/22 14:48:48;;;;;;;419.60;391.20;;;10.50;19.10;;;;;;5053675;28;20488;-71
2022/12/22 14:51:18;;;;;;;426.27;399.57;;;10.50;19.60;;;;;;5053741;28;20190;-74
2022/12/22 14:53:54;;;;;;;413.13;385.97;;;10.50;19.80;;;;;;5053574;28;20305;-73
2022/12/22 14:56:21;;;;;;;373.77;350.33;;;10.60;18.80;;;;;;5054085;28;20453;-72
2022/12/22 14:58:48;;;;;;;490.33;458.23;;;10.70;18.80;;;;;;5053374;28;20422;-71
2022/12/22 15:01:19;;;;;;;309.63;287.20;;;10.70;19.20;;;;;;5055015;28;20455;-72
2022/12/22 15:04:14;;;;;;;318.40;296.67;;;10.70;19.40;;;;;;5056191;28;20407;-71
2022/12/22 15:06:42;;;;;;;257.77;240.60;;;10.70;19.20;;;;;;5054113;28;20413;-73
2022/12/22 15:09:23;;;;;;;471.80;441.27;;;10.70;19.30;;;;;;5053462;28;20468;-72
2022/12/22 15:12:04;;;;;;;425.60;398.57;;;10.60;19.00;;;;;;5053170;28;20463;-72
2022/12/22 15:14:35;;;;;;;401.37;374.63;;;10.50;19.50;;;;;;5054109;28;20791;-74
2022/12/22 15:17:01;;;;;;;294.43;274.00;;;10.40;19.80;;;;;;5052460;28;20421;-72
2022/12/22 15:19:32;;;;;;;487.13;455.53;;;10.20;20.30;;;;;;5051937;28;20517;-71
2022/12/22 15:21:58;;;;;;;410.60;384.03;;;10.20;20.80;;;;;;5052276;28;20484;-71
2022/12/22 15:24:25;;;;;;;372.50;347.13;;;10.10;21.20;;;;;;5053035;28;20808;-71
2022/12/22 15:26:50;;;;;;;469.20;439.23;;;10.10;21.10;;;;;;5052371;28;20437;-71
2022/12/22 15:29:16;;;;;;;415.50;388.10;;;10.00;21.30;;;;;;5051244;28;21022;-71
2022/12/22 15:31:42;;;;;;;514.40;479.60;;;10.00;21.80;;;;;;5051964;28;20726;-70
2022/12/22 15:34:24;;;;;;;423.57;396.73;;;10.00;21.60;;;;;;5052622;28;20181;-72
2022/12/22 15:36:50;;;;;;;447.23;417.17;;;10.00;21.50;;;;;;5052046;28;20512;-71
2022/12/22 15:39:17;;;;;;;345.83;321.77;;;10.10;21.30;;;;;;5052719;28;20452;-72
2022/12/22 15:41:43;;;;;;;329.33;307.07;;;10.10;21.60;;;;;;5054809;28;20815;-71
2022/12/22 15:44:10;;;;;;;549.43;511.47;;;10.00;21.60;;;;;;5056231;28;20421;-72
2022/12/22 15:46:37;;;;;;;327.93;306.90;;;10.00;21.40;;;;;;5054347;28;21040;-74
2022/12/22 15:49:03;;;;;;;719.77;664.70;;;10.10;21.80;;;;;;5055883;28;20466;-71
2022/12/22 15:51:30;;;;;;;592.73;552.83;;;10.10;21.40;;;;;;5055932;28;20483;-70
2022/12/22 15:53:57;;;;;;;431.17;403.47;;;10.10;21.70;;;;;;5055656;28;20249;-71
2022/12/22 15:56:25;;;;;;;505.13;471.27;;;10.10;21.50;;;;;;5055844;28;20421;-70
2022/12/22 15:58:52;;;;;;;344.07;320.70;;;10.10;21.50;;;;;;5030785;28;20927;-70
2022/12/22 16:01:17;;;;;;;506.00;472.53;;;10.10;21.50;;;;;;5045723;28;20425;-70
2022/12/22 16:03:43;;;;;;;457.87;427.17;;;10.20;21.50;;;;;;5051051;28;20413;-69
2022/12/22 16:06:16;;;;;;;553.97;518.13;;;10.20;21.50;;;;;;5051693;28;20219;-69